aviador You're here:

FAJB Decoded Metar

in _UNIDENTIFIED
Report Time2017-12-16 16:00:00
UTC Time2017-12-16 16:46:34
Flight Rules unknown UNKNOWN
Wind340° at 01 kt
W.Rank340° ranks 5
Current wind is below 340° avg. (2.1)
VisibilityN/A
Phenomena:N/A
Clouds:N/A
Expected CloudBase > 6,000 ft AGL from Temp-Dew spread
CeilingNone
Temp26°C (ISA +22)
Dew Point11°C (39% RH)
QNH1022 hPa
Density Alt7,680 ft
Elevation5,334 ft
Report Wrong Elevation
Raw Report
FAJB 161600Z AUTO 34001KT //// // ////// 26/11 Q1022=

Extra information for FAJB:More info

Metar Taf Metar & Taf Last 4 Metars F.Rules Stats Wind Profile Meteogram Temp Stats Metar ALERT Operation Metar Decoded Social comments